Time;durP1;ratioP1;P1;durP2;ratioP2;P2;SDS_P1;SDS_P2;PMS_P1;PMS_P2;Temp;Humidity;BMP_temperature;BMP_pressure;BME280_temperature;BME280_humidity;BME280_pressure;Samples;Min_cycle;Max_cycle;Signal;HPM_P1;HPM_P2
2023/10/22 00:02:11;;;;;;;2.33;1.73;;;19.30;99.90;;;;;;5036310;28;20185;-88
2023/10/22 00:04:40;;;;;;;2.90;2.00;;;19.20;99.90;;;;;;5051983;28;20573;-88
2023/10/22 00:07:07;;;;;;;2.40;1.67;;;19.20;99.90;;;;;;5041467;28;20638;-88
2023/10/22 00:09:33;;;;;;;3.63;2.10;;;19.20;99.90;;;;;;5050678;28;20207;-87
2023/10/22 00:11:58;;;;;;;3.90;1.70;;;19.20;99.90;;;;;;5045280;28;20181;-88
2023/10/22 00:14:24;;;;;;;4.07;1.90;;;19.20;99.90;;;;;;5049388;28;20180;-87
2023/10/22 00:16:50;;;;;;;5.70;2.43;;;19.20;99.90;;;;;;5050093;28;20183;-90
2023/10/22 00:19:16;;;;;;;3.77;1.80;;;19.20;99.90;;;;;;5038661;28;20220;-88
2023/10/22 00:21:42;;;;;;;3.60;2.00;;;19.20;99.90;;;;;;5034107;28;20304;-87
2023/10/22 00:24:08;;;;;;;4.73;2.23;;;19.20;99.90;;;;;;5038518;28;20192;-88
2023/10/22 00:26:33;;;;;;;3.47;2.00;;;19.20;99.90;;;;;;5032723;28;20212;-89
2023/10/22 00:28:59;;;;;;;3.33;1.63;;;19.20;99.90;;;;;;5039812;28;20481;-89
2023/10/22 00:31:25;;;;;;;3.50;1.80;;;19.30;99.90;;;;;;5038906;28;20243;-88
2023/10/22 00:33:51;;;;;;;4.40;2.03;;;19.30;99.90;;;;;;5045143;28;20181;-89
2023/10/22 00:36:16;;;;;;;3.03;1.97;;;19.20;99.90;;;;;;5032590;28;20177;-88
2023/10/22 00:38:43;;;;;;;3.60;2.07;;;19.30;99.90;;;;;;5035939;28;20228;-88
2023/10/22 00:41:09;;;;;;;3.60;1.93;;;19.20;99.90;;;;;;5041907;28;20226;-89
2023/10/22 00:43:35;;;;;;;3.37;2.07;;;19.20;99.90;;;;;;5040420;28;20165;-89
2023/10/22 00:46:01;;;;;;;3.83;2.30;;;19.30;99.90;;;;;;5054643;28;20168;-89
2023/10/22 00:48:28;;;;;;;4.00;2.10;;;19.30;99.90;;;;;;5043215;28;20177;-89
2023/10/22 00:50:54;;;;;;;3.67;2.13;;;19.20;99.90;;;;;;5053325;28;20176;-89
2023/10/22 00:53:20;;;;;;;3.20;2.00;;;19.20;99.90;;;;;;5047313;28;20176;-89
2023/10/22 00:55:47;;;;;;;3.53;1.80;;;19.30;99.90;;;;;;5036187;28;20173;-89
2023/10/22 00:58:15;;;;;;;3.63;2.10;;;19.20;99.90;;;;;;5038043;28;20197;-89
2023/10/22 01:00:41;;;;;;;2.43;1.73;;;19.30;99.90;;;;;;5048618;28;20254;-89
2023/10/22 01:03:07;;;;;;;2.70;1.90;;;19.30;99.90;;;;;;5053322;28;20171;-89
2023/10/22 01:05:37;;;;;;;2.97;1.93;;;19.30;99.90;;;;;;5042110;28;20449;-89
2023/10/22 01:08:05;;;;;;;3.10;2.07;;;19.30;99.90;;;;;;5034337;28;20460;-88
2023/10/22 01:10:31;;;;;;;4.23;2.13;;;19.30;99.90;;;;;;5044258;28;20175;-88
2023/10/22 01:12:58;;;;;;;3.97;1.97;;;19.30;99.90;;;;;;5035846;28;20169;-89
2023/10/22 01:15:24;;;;;;;2.43;1.70;;;19.30;99.90;;;;;;5044360;28;20173;-88
2023/10/22 01:17:49;;;;;;;4.60;2.07;;;19.30;99.90;;;;;;5035617;28;20181;-89
2023/10/22 01:20:15;;;;;;;4.43;1.90;;;19.30;99.90;;;;;;5048793;28;20188;-89
2023/10/22 01:22:41;;;;;;;3.20;1.90;;;19.30;99.90;;;;;;5034600;28;20169;-89
2023/10/22 01:25:07;;;;;;;1.97;1.63;;;19.30;99.90;;;;;;5046995;28;20161;-88
2023/10/22 01:27:34;;;;;;;3.23;1.90;;;19.30;99.90;;;;;;5034350;28;20437;-89
2023/10/22 01:29:59;;;;;;;2.93;1.87;;;19.30;99.90;;;;;;5046464;28;20238;-89
2023/10/22 01:32:30;;;;;;;4.20;1.80;;;19.30;99.90;;;;;;5034696;28;20196;-89
2023/10/22 01:35:02;;;;;;;3.43;1.90;;;19.30;99.90;;;;;;5042909;28;20649;-87
2023/10/22 01:37:27;;;;;;;3.33;1.90;;;19.30;99.90;;;;;;5036617;28;20219;-88
2023/10/22 01:39:54;;;;;;;3.13;2.00;;;19.20;99.90;;;;;;5041331;28;20478;-88
2023/10/22 01:42:19;;;;;;;2.60;1.70;;;19.30;99.90;;;;;;5034198;28;20191;-88
2023/10/22 01:44:45;;;;;;;2.70;1.80;;;19.30;99.90;;;;;;5039330;28;20173;-88
2023/10/22 01:47:11;;;;;;;4.50;1.90;;;19.30;99.90;;;;;;5042485;28;20188;-88
2023/10/22 01:49:38;;;;;;;3.10;1.93;;;19.30;99.90;;;;;;5036993;28;20225;-89
2023/10/22 01:52:04;;;;;;;2.63;1.70;;;19.30;99.80;;;;;;5045142;28;20450;-88
2023/10/22 01:54:30;;;;;;;2.90;1.70;;;19.30;99.90;;;;;;5038675;28;20533;-89
2023/10/22 01:56:55;;;;;;;1.90;1.57;;;19.30;99.90;;;;;;5044238;28;20180;-89
2023/10/22 01:59:21;;;;;;;2.83;1.73;;;19.30;99.90;;;;;;5053849;28;20200;-87
2023/10/22 02:01:47;;;;;;;3.23;1.80;;;19.30;99.90;;;;;;5044985;28;20249;-86
2023/10/22 02:04:13;;;;;;;3.43;1.83;;;19.30;99.90;;;;;;5054522;28;20346;-87
2023/10/22 02:06:39;;;;;;;2.33;1.63;;;19.30;99.90;;;;;;5042320;28;20203;-87
2023/10/22 02:09:05;;;;;;;2.53;1.60;;;19.30;99.90;;;;;;5053661;28;20542;-86
2023/10/22 02:11:31;;;;;;;3.83;1.80;;;19.30;99.90;;;;;;5041191;28;20531;-87
2023/10/22 02:13:56;;;;;;;3.27;1.90;;;19.30;99.90;;;;;;5055244;28;20284;-87
2023/10/22 02:16:23;;;;;;;3.17;1.80;;;19.30;99.90;;;;;;5044037;28;20562;-87
2023/10/22 02:18:49;;;;;;;2.87;1.70;;;19.30;99.90;;;;;;5052613;28;20298;-87
2023/10/22 02:21:15;;;;;;;3.43;1.80;;;19.30;99.90;;;;;;5047072;28;20263;-87
2023/10/22 02:23:41;;;;;;;2.67;1.63;;;19.30;99.80;;;;;;5048874;28;20554;-88
2023/10/22 02:26:08;;;;;;;4.17;1.80;;;19.30;99.80;;;;;;5049600;28;20259;-88
2023/10/22 02:28:34;;;;;;;2.90;1.60;;;19.30;99.80;;;;;;5040546;28;20181;-88
2023/10/22 02:31:00;;;;;;;2.40;1.43;;;19.30;99.80;;;;;;5038642;28;20182;-87
2023/10/22 02:33:25;;;;;;;2.03;1.50;;;19.30;99.80;;;;;;5041442;28;20250;-88
2023/10/22 02:35:51;;;;;;;2.83;1.70;;;19.30;99.80;;;;;;5032547;28;20183;-87
2023/10/22 02:38:18;;;;;;;2.97;1.60;;;19.30;99.80;;;;;;5050519;28;20423;-86
2023/10/22 02:40:45;;;;;;;1.67;1.53;;;19.30;99.80;;;;;;5047607;28;20200;-88
2023/10/22 02:43:11;;;;;;;2.37;1.50;;;19.30;99.80;;;;;;5043504;28;20268;-88
2023/10/22 02:45:37;;;;;;;3.33;1.77;;;19.30;99.80;;;;;;5050460;28;20173;-89
2023/10/22 02:48:03;;;;;;;2.70;1.50;;;19.30;99.80;;;;;;5044100;28;20188;-87
2023/10/22 02:50:28;;;;;;;2.57;1.47;;;19.30;99.70;;;;;;5030641;28;20192;-87
2023/10/22 02:52:55;;;;;;;2.53;1.53;;;19.30;99.70;;;;;;5043166;28;20188;-86
2023/10/22 02:55:21;;;;;;;2.43;1.60;;;19.20;99.60;;;;;;5047266;28;20181;-87
2023/10/22 02:57:47;;;;;;;2.27;1.60;;;19.30;99.60;;;;;;5041839;28;20245;-87
2023/10/22 03:00:14;;;;;;;1.80;1.40;;;19.30;99.60;;;;;;5032499;28;20188;-87
2023/10/22 03:02:40;;;;;;;2.63;1.37;;;19.30;99.60;;;;;;5039271;28;20169;-87
2023/10/22 03:05:07;;;;;;;2.30;1.57;;;19.30;99.60;;;;;;5036260;28;20173;-87
2023/10/22 03:07:32;;;;;;;2.20;1.37;;;19.30;99.60;;;;;;5033900;28;20451;-88
2023/10/22 03:09:58;;;;;;;2.10;1.40;;;19.30;99.60;;;;;;5045296;28;20582;-87
2023/10/22 03:12:25;;;;;;;1.93;1.40;;;19.30;99.60;;;;;;5048131;28;20177;-88
2023/10/22 03:14:52;;;;;;;2.80;1.40;;;19.30;99.60;;;;;;5041424;28;20180;-87
2023/10/22 03:17:18;;;;;;;3.57;1.60;;;19.30;99.60;;;;;;5034066;28;20208;-87
2023/10/22 03:19:44;;;;;;;2.77;1.43;;;19.30;99.60;;;;;;5059432;28;20258;-87
2023/10/22 03:22:10;;;;;;;1.50;1.30;;;19.30;99.60;;;;;;5034239;28;20185;-87
2023/10/22 03:24:36;;;;;;;1.90;1.40;;;19.30;99.60;;;;;;5044157;28;20264;-86
2023/10/22 03:27:05;;;;;;;1.87;1.50;;;19.20;99.60;;;;;;5033024;28;20271;-87
2023/10/22 03:29:32;;;;;;;1.60;1.20;;;19.30;99.60;;;;;;5042122;28;20176;-86
2023/10/22 03:31:58;;;;;;;3.40;1.63;;;19.30;99.60;;;;;;5015496;28;20548;-88
2023/10/22 03:34:24;;;;;;;2.70;1.50;;;19.20;99.60;;;;;;5044185;28;20649;-89
2023/10/22 03:36:50;;;;;;;1.80;1.40;;;19.20;99.60;;;;;;5033176;28;20173;-88
2023/10/22 03:39:17;;;;;;;2.23;1.50;;;19.30;99.60;;;;;;5047676;28;20234;-88
2023/10/22 03:41:43;;;;;;;1.43;1.10;;;19.20;99.60;;;;;;5034951;28;20173;-88
2023/10/22 03:44:10;;;;;;;2.23;1.53;;;19.20;99.60;;;;;;5036132;28;20238;-88
2023/10/22 03:46:36;;;;;;;3.27;1.33;;;19.20;99.60;;;;;;5049910;28;20238;-88
2023/10/22 03:49:01;;;;;;;2.80;1.47;;;19.20;99.60;;;;;;5045958;28;20181;-88
2023/10/22 03:51:27;;;;;;;1.97;1.30;;;19.20;99.60;;;;;;5047461;28;20180;-88
2023/10/22 03:53:54;;;;;;;1.77;1.30;;;19.20;99.60;;;;;;5048807;28;20176;-88
2023/10/22 03:56:20;;;;;;;2.03;1.40;;;19.20;99.50;;;;;;5044523;28;20176;-88
2023/10/22 03:58:46;;;;;;;2.00;1.30;;;19.20;99.60;;;;;;5050551;28;20200;-88
2023/10/22 04:01:12;;;;;;;1.50;1.30;;;19.20;99.50;;;;;;5042369;28;20177;-88
2023/10/22 04:03:38;;;;;;;1.77;1.10;;;19.20;99.50;;;;;;5050595;28;20179;-88
2023/10/22 04:06:03;;;;;;;2.30;1.37;;;19.20;99.50;;;;;;5041307;28;20275;-88
2023/10/22 04:08:29;;;;;;;1.70;1.20;;;19.20;99.50;;;;;;5054754;28;20180;-88
2023/10/22 04:10:55;;;;;;;1.80;1.20;;;19.20;99.50;;;;;;5038926;28;20184;-88
2023/10/22 04:13:21;;;;;;;1.33;1.20;;;19.20;99.50;;;;;;5037123;28;20177;-88
2023/10/22 04:15:48;;;;;;;1.70;1.30;;;19.20;99.50;;;;;;5048480;28;20176;-88
2023/10/22 04:18:15;;;;;;;2.00;1.30;;;19.20;99.60;;;;;;5036090;28;20517;-87
2023/10/22 04:20:41;;;;;;;1.50;1.27;;;19.20;99.40;;;;;;5041818;28;20458;-88
2023/10/22 04:23:10;;;;;;;1.53;1.10;;;19.20;99.50;;;;;;5056001;28;20219;-88
2023/10/22 04:25:40;;;;;;;1.33;1.10;;;19.20;99.50;;;;;;5047315;28;20187;-88
2023/10/22 04:28:09;;;;;;;1.30;1.10;;;19.20;99.80;;;;;;5054490;28;20173;-87
2023/10/22 04:30:39;;;;;;;1.40;1.30;;;19.20;99.50;;;;;;5047750;28;20473;-88
2023/10/22 04:33:06;;;;;;;1.90;1.03;;;19.20;99.50;;;;;;5051142;28;20195;-88
2023/10/22 04:35:33;;;;;;;1.90;1.20;;;19.20;99.60;;;;;;5047993;28;20169;-88
2023/10/22 04:37:59;;;;;;;1.47;1.17;;;19.20;99.50;;;;;;5048584;28;20187;-88
2023/10/22 04:40:27;;;;;;;1.50;1.20;;;19.20;99.50;;;;;;5047136;28;20170;-88
2023/10/22 04:42:59;;;;;;;1.30;1.00;;;19.20;99.60;;;;;;5047346;28;20199;-87
2023/10/22 04:45:25;;;;;;;1.43;1.17;;;19.20;99.60;;;;;;5053680;28;20169;-88
2023/10/22 04:47:51;;;;;;;1.00;0.90;;;19.20;99.60;;;;;;5045362;28;20259;-88
2023/10/22 04:50:16;;;;;;;1.40;1.07;;;19.20;99.60;;;;;;5037105;28;20440;-87
2023/10/22 04:52:42;;;;;;;1.43;1.20;;;19.20;99.50;;;;;;5046644;28;20184;-87
2023/10/22 04:55:11;;;;;;;1.63;0.87;;;19.20;99.50;;;;;;5035620;28;20444;-87
2023/10/22 04:57:36;;;;;;;1.17;1.07;;;19.20;99.50;;;;;;5044377;28;20168;-87
2023/10/22 05:00:04;;;;;;;1.20;1.10;;;19.20;99.50;;;;;;5064102;28;20230;-87
2023/10/22 05:02:30;;;;;;;1.37;1.17;;;19.20;99.50;;;;;;5042961;28;20214;-88
2023/10/22 05:04:55;;;;;;;1.30;1.00;;;19.20;99.50;;;;;;5055793;28;20267;-87
2023/10/22 05:07:21;;;;;;;1.57;1.10;;;19.20;99.50;;;;;;5042776;28;20315;-87
2023/10/22 05:09:47;;;;;;;1.23;1.13;;;19.20;99.50;;;;;;5055006;28;20172;-88
2023/10/22 05:12:12;;;;;;;1.17;0.90;;;19.20;99.50;;;;;;5043314;28;20180;-88
2023/10/22 05:14:38;;;;;;;1.27;1.17;;;19.20;99.60;;;;;;5050706;28;20412;-88
2023/10/22 05:17:05;;;;;;;1.13;0.93;;;19.20;99.50;;;;;;5044621;28;20204;-89
2023/10/22 05:19:30;;;;;;;1.10;1.00;;;19.20;99.50;;;;;;5047353;28;20210;-87
2023/10/22 05:21:56;;;;;;;1.20;0.90;;;19.20;99.60;;;;;;5047255;28;20169;-87
2023/10/22 05:24:23;;;;;;;1.37;1.10;;;19.20;99.60;;;;;;5045977;28;20188;-86
2023/10/22 05:26:50;;;;;;;1.27;0.93;;;19.10;99.50;;;;;;5052493;28;20172;-87
2023/10/22 05:29:16;;;;;;;1.43;1.00;;;19.20;99.60;;;;;;5046431;28;20184;-88
2023/10/22 05:31:42;;;;;;;1.00;0.90;;;19.20;99.60;;;;;;5053989;28;20216;-87
2023/10/22 05:34:08;;;;;;;1.17;1.07;;;19.20;99.50;;;;;;5045166;28;20469;-87
2023/10/22 05:36:34;;;;;;;1.00;0.90;;;19.20;99.50;;;;;;5053421;28;20241;-87
2023/10/22 05:39:00;;;;;;;1.00;0.90;;;19.20;99.80;;;;;;5042641;28;20207;-88
2023/10/22 05:41:27;;;;;;;1.00;0.90;;;19.20;99.50;;;;;;5043260;28;20184;-88
2023/10/22 05:44:01;;;;;;;1.20;1.10;;;19.20;99.50;;;;;;5045843;28;20161;-87
2023/10/22 05:46:28;;;;;;;1.07;0.97;;;19.10;99.50;;;;;;5034095;28;20172;-88
2023/10/22 05:48:55;;;;;;;1.23;1.00;;;19.20;99.50;;;;;;5060847;28;20560;-87
2023/10/22 05:51:20;;;;;;;1.03;0.80;;;19.20;99.50;;;;;;5033951;28;20169;-87
2023/10/22 05:53:46;;;;;;;1.10;1.00;;;19.20;99.50;;;;;;5044965;28;20263;-87
2023/10/22 05:56:12;;;;;;;1.07;0.97;;;19.10;99.50;;;;;;5034535;28;20207;-87
2023/10/22 05:58:39;;;;;;;1.00;0.90;;;19.20;99.50;;;;;;5037395;28;20211;-87
2023/10/22 06:01:05;;;;;;;1.07;0.80;;;19.20;99.50;;;;;;5050491;28;20176;-87
2023/10/22 06:03:31;;;;;;;1.63;1.00;;;19.20;99.50;;;;;;5046740;28;20201;-87
2023/10/22 06:05:57;;;;;;;1.20;0.80;;;19.20;99.50;;;;;;5047481;28;20165;-88
2023/10/22 06:08:23;;;;;;;1.20;1.10;;;19.20;99.80;;;;;;5048314;28;20348;-88
2023/10/22 06:10:48;;;;;;;1.10;1.00;;;19.20;99.50;;;;;;5043879;28;20407;-87
2023/10/22 06:13:14;;;;;;;1.17;0.80;;;19.20;99.60;;;;;;5050809;28;20645;-87
2023/10/22 06:15:44;;;;;;;1.00;0.90;;;19.10;99.50;;;;;;5040752;28;20180;-87
2023/10/22 06:18:10;;;;;;;3.03;1.27;;;19.20;99.50;;;;;;5052020;28;20618;-89
2023/10/22 06:20:36;;;;;;;1.13;0.90;;;19.10;99.50;;;;;;5046299;28;20402;-88
2023/10/22 06:23:03;;;;;;;1.67;1.13;;;19.10;99.50;;;;;;5035209;28;20219;-88
2023/10/22 06:25:31;;;;;;;0.87;0.87;;;19.10;99.50;;;;;;5049207;28;20183;-88
2023/10/22 06:27:58;;;;;;;1.73;1.00;;;19.20;99.50;;;;;;5050833;28;20439;-88
2023/10/22 06:30:25;;;;;;;2.30;0.90;;;19.10;99.50;;;;;;5043788;28;20219;-88
2023/10/22 06:32:58;;;;;;;1.27;0.90;;;19.10;99.50;;;;;;5031454;28;20180;-88
2023/10/22 06:35:27;;;;;;;1.43;1.10;;;19.10;99.50;;;;;;5043567;28;20180;-88
2023/10/22 06:37:54;;;;;;;1.00;0.90;;;19.10;99.50;;;;;;5032885;28;20192;-88
2023/10/22 06:40:22;;;;;;;1.00;0.90;;;19.10;99.50;;;;;;5040226;28;20282;-88
2023/10/22 06:42:48;;;;;;;1.17;1.00;;;19.10;99.50;;;;;;5033063;28;20173;-88
2023/10/22 06:45:17;;;;;;;0.90;0.90;;;19.10;99.50;;;;;;5041425;28;20169;-88
2023/10/22 06:47:46;;;;;;;0.90;0.80;;;19.10;99.50;;;;;;5034062;28;20169;-89
2023/10/22 06:50:13;;;;;;;0.83;0.80;;;19.10;99.50;;;;;;5038254;28;20168;-89
2023/10/22 06:52:39;;;;;;;1.00;0.90;;;19.20;99.50;;;;;;5035317;28;20267;-88
2023/10/22 06:55:05;;;;;;;1.20;0.90;;;19.20;99.50;;;;;;5036499;28;20168;-88
2023/10/22 06:57:31;;;;;;;0.80;0.80;;;19.20;99.80;;;;;;5038535;28;20456;-87
2023/10/22 06:59:58;;;;;;;1.50;0.90;;;19.10;99.50;;;;;;5033820;28;20291;-88
2023/10/22 07:02:27;;;;;;;0.90;0.77;;;19.20;99.60;;;;;;5040751;28;20312;-88
2023/10/22 07:04:56;;;;;;;1.30;1.00;;;19.10;99.50;;;;;;5049686;28;20161;-87
2023/10/22 07:07:24;;;;;;;0.70;0.70;;;19.10;99.50;;;;;;5028968;28;20262;-87
2023/10/22 07:09:49;;;;;;;2.10;1.00;;;19.10;99.50;;;;;;5048488;28;20262;-87
2023/10/22 07:12:16;;;;;;;0.73;0.70;;;19.20;99.50;;;;;;5037606;28;20279;-87
2023/10/22 07:14:42;;;;;;;1.33;0.90;;;19.10;99.50;;;;;;5048399;28;20234;-87
2023/10/22 07:17:08;;;;;;;0.80;0.80;;;19.20;99.50;;;;;;5031123;28;20216;-87
2023/10/22 07:19:34;;;;;;;1.20;0.80;;;19.20;99.50;;;;;;5029031;28;20208;-89
2023/10/22 07:22:01;;;;;;;0.70;0.70;;;19.20;99.50;;;;;;5041050;28;20258;-89
2023/10/22 07:24:28;;;;;;;1.30;0.90;;;19.10;99.50;;;;;;5029814;28;20412;-89
2023/10/22 07:26:54;;;;;;;0.80;0.80;;;19.20;99.50;;;;;;5060174;28;20180;-89
2023/10/22 07:29:20;;;;;;;0.70;0.70;;;19.20;99.50;;;;;;5032117;28;20486;-89
2023/10/22 07:31:48;;;;;;;1.10;1.00;;;19.20;99.50;;;;;;5040486;28;20176;-89
2023/10/22 07:34:14;;;;;;;2.60;0.90;;;19.20;99.50;;;;;;5032557;28;20188;-89
2023/10/22 07:36:40;;;;;;;0.90;0.80;;;19.20;99.50;;;;;;5034830;28;20222;-88
2023/10/22 07:39:07;;;;;;;0.73;0.73;;;19.20;99.50;;;;;;5033633;28;20208;-89
2023/10/22 07:41:33;;;;;;;1.23;0.90;;;19.20;99.50;;;;;;5035498;28;20172;-89
2023/10/22 07:44:00;;;;;;;0.97;0.87;;;19.20;99.40;;;;;;5044029;28;20164;-89
2023/10/22 07:46:26;;;;;;;0.77;0.70;;;19.20;99.50;;;;;;5049791;28;20175;-86
2023/10/22 07:48:51;;;;;;;1.90;1.10;;;19.20;99.40;;;;;;5041848;28;20177;-87
2023/10/22 07:51:18;;;;;;;1.00;0.90;;;19.20;99.50;;;;;;5034315;28;20403;-86
2023/10/22 07:53:46;;;;;;;2.50;0.70;;;19.20;99.40;;;;;;5044961;28;20284;-87
2023/10/22 07:56:12;;;;;;;1.20;0.90;;;19.20;99.40;;;;;;5034336;28;20184;-87
2023/10/22 07:58:38;;;;;;;1.03;0.93;;;19.20;99.40;;;;;;5045740;28;20200;-88
2023/10/22 08:01:06;;;;;;;1.97;1.00;;;19.20;99.40;;;;;;5032286;28;20180;-88
2023/10/22 08:03:32;;;;;;;1.10;0.80;;;19.20;99.40;;;;;;5037542;28;20179;-88
2023/10/22 08:05:59;;;;;;;1.03;0.90;;;19.20;99.40;;;;;;5053667;28;20179;-88
2023/10/22 08:08:25;;;;;;;0.80;0.80;;;19.20;99.40;;;;;;5039749;28;20249;-87
2023/10/22 08:10:51;;;;;;;0.70;0.70;;;19.20;99.40;;;;;;5053379;28;20196;-88
2023/10/22 08:13:20;;;;;;;1.17;0.97;;;19.20;99.40;;;;;;5041707;28;20177;-88
2023/10/22 08:15:46;;;;;;;0.70;0.70;;;19.20;99.40;;;;;;5050510;28;20184;-88
2023/10/22 08:18:11;;;;;;;1.27;0.70;;;19.20;99.40;;;;;;5041398;28;20255;-88
2023/10/22 08:20:37;;;;;;;0.80;0.80;;;19.20;99.40;;;;;;5053401;28;20280;-88
2023/10/22 08:23:03;;;;;;;1.77;0.90;;;19.20;99.40;;;;;;5034136;28;20493;-88
2023/10/22 08:25:29;;;;;;;1.10;1.00;;;19.20;99.40;;;;;;5045270;28;20172;-88
2023/10/22 08:27:55;;;;;;;1.00;0.90;;;19.20;99.40;;;;;;5048461;28;20327;-88
2023/10/22 08:30:22;;;;;;;0.70;0.70;;;19.20;99.40;;;;;;5048589;28;20239;-88
2023/10/22 08:32:48;;;;;;;0.90;0.90;;;19.30;99.40;;;;;;5034394;28;20181;-88
2023/10/22 08:35:14;;;;;;;0.90;0.90;;;19.30;99.40;;;;;;5043487;28;20172;-87
2023/10/22 08:37:41;;;;;;;1.47;1.00;;;19.30;99.40;;;;;;5033401;28;20501;-87
2023/10/22 08:40:08;;;;;;;0.80;0.80;;;19.30;99.40;;;;;;5043307;28;20227;-87
2023/10/22 08:42:35;;;;;;;1.30;0.90;;;19.30;99.40;;;;;;5049679;28;20202;-89
2023/10/22 08:45:07;;;;;;;1.27;0.90;;;19.30;99.40;;;;;;5037104;28;20179;-89
2023/10/22 08:47:34;;;;;;;1.67;0.90;;;19.30;99.30;;;;;;5050184;28;20168;-87
2023/10/22 08:50:02;;;;;;;1.37;0.90;;;19.30;99.40;;;;;;5035869;28;20555;-89
2023/10/22 08:52:28;;;;;;;0.80;0.80;;;19.30;99.40;;;;;;5050510;28;20179;-89
2023/10/22 08:54:54;;;;;;;1.13;1.00;;;19.30;99.30;;;;;;5037426;28;20181;-89
2023/10/22 08:57:22;;;;;;;0.83;0.83;;;19.30;99.30;;;;;;5030089;28;20192;-89
2023/10/22 08:59:48;;;;;;;0.87;0.87;;;19.30;99.30;;;;;;5039674;28;20227;-88
2023/10/22 09:02:26;;;;;;;0.80;0.80;;;19.30;99.30;;;;;;5033486;28;20452;-88
2023/10/22 09:04:55;;;;;;;0.80;0.80;;;19.30;99.30;;;;;;5037876;28;20175;-89
2023/10/22 09:07:50;;;;;;;0.80;0.80;;;19.30;99.30;;;;;;5033274;28;20761;-88
2023/10/22 09:10:31;;;;;;;1.20;1.10;;;19.40;99.30;;;;;;5044735;28;20173;-89
2023/10/22 09:13:15;;;;;;;1.00;1.00;;;19.40;99.40;;;;;;5030484;28;20196;-89
2023/10/22 09:15:48;;;;;;;1.77;0.97;;;19.40;99.40;;;;;;5041521;28;20669;-88
2023/10/22 09:18:16;;;;;;;1.10;1.00;;;19.40;99.50;;;;;;5028678;28;20165;-89
2023/10/22 09:20:44;;;;;;;1.97;0.97;;;19.40;99.50;;;;;;5038791;28;20522;-88
2023/10/22 09:23:20;;;;;;;1.43;1.10;;;19.40;99.60;;;;;;5027238;28;20272;-89
2023/10/22 09:25:47;;;;;;;1.90;1.10;;;19.40;99.60;;;;;;5038267;28;20639;-89
2023/10/22 09:28:25;;;;;;;2.00;0.90;;;19.40;99.70;;;;;;5045648;28;20168;-90
2023/10/22 09:31:00;;;;;;;1.10;1.00;;;19.40;99.70;;;;;;5034436;28;20173;-89
2023/10/22 09:33:32;;;;;;;0.97;0.90;;;19.40;99.70;;;;;;5048057;28;20202;-89
2023/10/22 09:36:06;;;;;;;1.37;0.87;;;19.50;99.70;;;;;;5037064;28;20554;-89
2023/10/22 09:38:52;;;;;;;1.20;1.10;;;19.40;99.70;;;;;;5047204;28;20496;-88
2023/10/22 09:41:23;;;;;;;1.63;1.00;;;19.50;99.60;;;;;;5038430;28;20267;-89
2023/10/22 09:44:05;;;;;;;1.40;1.00;;;19.50;99.60;;;;;;5025699;28;20177;-89
2023/10/22 09:46:33;;;;;;;1.80;1.03;;;19.50;99.50;;;;;;5028037;28;20276;-89
2023/10/22 09:49:03;;;;;;;1.00;0.93;;;19.50;99.50;;;;;;5048527;28;20210;-88
2023/10/22 09:51:35;;;;;;;2.97;1.00;;;19.50;99.50;;;;;;5038030;28;20188;-88
2023/10/22 09:54:06;;;;;;;3.43;1.10;;;19.50;99.50;;;;;;5046254;28;20180;-89
2023/10/22 09:56:36;;;;;;;1.63;0.93;;;19.50;99.50;;;;;;5039808;28;20172;-89
2023/10/22 09:59:06;;;;;;;1.00;0.90;;;19.50;99.50;;;;;;5046517;28;20207;-89
2023/10/22 10:01:33;;;;;;;1.73;1.20;;;19.50;99.40;;;;;;5043336;28;20180;-88
2023/10/22 10:04:00;;;;;;;1.50;1.10;;;19.50;99.40;;;;;;5033139;28;20259;-89
2023/10/22 10:06:27;;;;;;;1.87;1.00;;;19.50;99.40;;;;;;5033242;28;20192;-91
2023/10/22 10:08:53;;;;;;;1.30;0.87;;;19.50;99.40;;;;;;5035067;28;20238;-90
2023/10/22 10:11:21;;;;;;;1.90;0.80;;;19.50;99.40;;;;;;5032002;28;20543;-91
2023/10/22 10:13:48;;;;;;;2.37;1.00;;;19.60;99.40;;;;;;5038609;28;20258;-90
2023/10/22 10:16:14;;;;;;;7.57;1.57;;;19.50;99.40;;;;;;5032638;28;20180;-90
2023/10/22 10:19:02;;;;;;;1.60;1.00;;;19.60;99.40;;;;;;5037766;28;20222;-90
2023/10/22 10:21:34;;;;;;;1.80;1.00;;;19.60;99.40;;;;;;5046848;28;20176;-90
2023/10/22 10:24:23;;;;;;;1.67;1.07;;;19.60;99.40;;;;;;5042886;28;20799;-90
2023/10/22 10:26:52;;;;;;;1.43;1.07;;;19.60;99.40;;;;;;5044980;28;20497;-87
2023/10/22 10:29:19;;;;;;;2.33;1.03;;;19.60;99.30;;;;;;5036403;28;20187;-89
2023/10/22 10:31:51;;;;;;;1.17;0.90;;;19.60;99.30;;;;;;5044924;28;20215;-89
2023/10/22 10:34:43;;;;;;;1.60;0.90;;;19.60;99.60;;;;;;5034338;28;20498;-89
2023/10/22 10:37:15;;;;;;;1.13;0.83;;;19.60;99.40;;;;;;5042387;28;20473;-89
2023/10/22 10:39:42;;;;;;;1.90;0.90;;;19.60;99.40;;;;;;5035210;28;20211;-89
2023/10/22 10:42:36;;;;;;;4.37;1.00;;;19.60;99.40;;;;;;5026738;28;20177;-89
2023/10/22 10:45:07;;;;;;;1.03;0.83;;;19.60;99.40;;;;;;5038727;28;20463;-88
2023/10/22 10:47:33;;;;;;;2.20;1.10;;;19.60;99.40;;;;;;5043537;28;20184;-89
2023/10/22 10:50:17;;;;;;;5.00;1.17;;;19.60;99.40;;;;;;5032783;28;20271;-88
2023/10/22 10:52:46;;;;;;;1.70;0.90;;;19.70;99.40;;;;;;5041419;28;20187;-88
2023/10/22 10:55:15;;;;;;;2.33;1.03;;;19.70;99.40;;;;;;5034914;28;20184;-88
2023/10/22 10:57:46;;;;;;;1.73;0.90;;;19.70;99.40;;;;;;5043477;28;20234;-89
2023/10/22 11:00:21;;;;;;;2.87;1.10;;;19.70;99.40;;;;;;5024713;28;20464;-89
2023/10/22 11:02:47;;;;;;;3.47;1.13;;;19.80;99.60;;;;;;5044583;28;20172;-88
2023/10/22 11:05:14;;;;;;;10.13;1.57;;;19.90;99.70;;;;;;5035633;28;20176;-88
2023/10/22 11:07:42;;;;;;;7.70;1.43;;;20.00;99.90;;;;;;5045245;28;20171;-89
2023/10/22 11:10:12;;;;;;;3.93;1.20;;;20.10;99.90;;;;;;5036547;28;20172;-88
2023/10/22 11:12:38;;;;;;;19.07;1.70;;;20.10;99.70;;;;;;5046734;28;20237;-88
2023/10/22 11:15:06;;;;;;;12.23;1.50;;;20.20;99.90;;;;;;5032258;28;20669;-88
2023/10/22 11:17:32;;;;;;;9.17;1.70;;;20.30;99.90;;;;;;5051044;28;20253;-88
2023/10/22 11:19:58;;;;;;;11.70;1.90;;;20.40;99.90;;;;;;5047068;28;20203;-89
2023/10/22 11:22:24;;;;;;;8.70;1.57;;;20.40;99.90;;;;;;5027433;28;20345;-88
2023/10/22 11:24:51;;;;;;;10.97;1.73;;;20.50;99.90;;;;;;5039867;28;20172;-88
2023/10/22 11:27:18;;;;;;;14.90;2.10;;;20.50;99.70;;;;;;5029418;28;20169;-89
2023/10/22 11:29:49;;;;;;;6.40;1.70;;;20.40;99.80;;;;;;5032419;28;20192;-88
2023/10/22 11:32:16;;;;;;;12.47;1.83;;;20.40;99.70;;;;;;5044935;28;20172;-88
2023/10/22 11:34:51;;;;;;;12.23;1.50;;;20.40;99.70;;;;;;5039447;28;20247;-88
2023/10/22 11:37:30;;;;;;;7.43;1.83;;;20.40;99.70;;;;;;5043006;28;20181;-88
2023/10/22 11:39:57;;;;;;;7.37;1.90;;;20.40;99.60;;;;;;5030945;28;20666;-88
2023/10/22 11:42:31;;;;;;;7.17;1.60;;;20.40;99.50;;;;;;5026765;28;20264;-88
2023/10/22 11:44:56;;;;;;;5.57;1.50;;;20.40;99.50;;;;;;5035647;28;20200;-88
2023/10/22 11:47:33;;;;;;;6.63;1.80;;;20.40;99.40;;;;;;5040745;28;20192;-88
2023/10/22 11:49:59;;;;;;;6.30;1.60;;;20.40;99.40;;;;;;5035105;28;20663;-89
2023/10/22 11:52:34;;;;;;;5.60;1.50;;;20.40;99.60;;;;;;5034875;28;20477;-88
2023/10/22 11:55:04;;;;;;;3.93;1.30;;;20.40;99.30;;;;;;5035339;28;20451;-88
2023/10/22 11:57:33;;;;;;;6.13;1.30;;;20.40;99.20;;;;;;5035955;28;20281;-88
2023/10/22 11:59:59;;;;;;;3.53;1.40;;;20.40;99.20;;;;;;5032882;28;20204;-88
2023/10/22 12:02:25;;;;;;;6.63;1.53;;;20.40;99.20;;;;;;5038665;28;20173;-88
2023/10/22 12:04:52;;;;;;;1.83;1.40;;;20.40;99.20;;;;;;5030024;28;20191;-88
2023/10/22 12:07:17;;;;;;;4.17;1.57;;;20.40;99.20;;;;;;5049026;28;20171;-88
2023/10/22 12:09:44;;;;;;;6.50;1.30;;;20.40;99.10;;;;;;5047148;28;20233;-88
2023/10/22 12:12:09;;;;;;;3.23;1.30;;;20.40;99.00;;;;;;5037265;28;20194;-88
2023/10/22 12:14:38;;;;;;;3.50;1.40;;;20.50;99.00;;;;;;5047558;28;20172;-88
2023/10/22 12:17:04;;;;;;;3.43;1.40;;;20.40;98.90;;;;;;5039481;28;20188;-88
2023/10/22 12:19:30;;;;;;;6.53;1.60;;;20.50;99.00;;;;;;5027297;28;20280;-88
2023/10/22 12:21:55;;;;;;;3.57;1.57;;;20.50;98.70;;;;;;5044128;28;20180;-89
2023/10/22 12:24:22;;;;;;;3.40;1.17;;;20.60;98.60;;;;;;5028488;28;20177;-88
2023/10/22 12:26:48;;;;;;;6.57;1.30;;;20.70;98.40;;;;;;5039229;28;20508;-89
2023/10/22 12:29:14;;;;;;;2.37;1.07;;;20.70;98.30;;;;;;5028793;28;20751;-89
2023/10/22 12:31:41;;;;;;;6.07;1.57;;;20.70;98.20;;;;;;5037224;28;20172;-88
2023/10/22 12:34:07;;;;;;;2.90;1.40;;;20.80;98.10;;;;;;5030655;28;20238;-88
2023/10/22 12:36:34;;;;;;;2.83;1.17;;;20.80;98.00;;;;;;5033084;28;20174;-88
2023/10/22 12:39:00;;;;;;;3.07;1.10;;;20.80;97.90;;;;;;5037609;28;20200;-88
2023/10/22 12:41:26;;;;;;;4.03;1.40;;;20.80;97.90;;;;;;5039030;28;20165;-88
2023/10/22 12:43:52;;;;;;;2.67;1.30;;;20.80;97.90;;;;;;5056950;28;20165;-88
2023/10/22 12:46:18;;;;;;;3.57;1.50;;;20.80;97.90;;;;;;5055813;28;20238;-88
2023/10/22 12:48:44;;;;;;;2.60;1.20;;;20.80;97.80;;;;;;5036557;28;20173;-90